Wila, Pennsylvania
Current Conditions -  °F | °C
As of 2:56 AM on Thursday 23 Oct 2014 (Local Time) from KCXY Reporting Station
Overcast Overcast  
Wind Chill: 12°   Ceiling: 2700
Heat Index: 12°   Visibility: 10mi
Dew Point:   Wind: 15mph
Humidity: 66%   Direction: 350°N
Pressure: 29.89"   Gusts: NA
Location:  40.4932°N, 77.217°W
Report Text: KCXY 230656Z AUTO 35013KT 10SM OVC027 12/06 A2989 RMK AO2 SLP123 T01220061
Loading
Personal Weather Stations






























Interactive Weather Map
Tropical Storm Tracking
New forecast layout! Learn more

10-Day Weather Forecast

Advertisements
Track Severe Weather on mobile